Hlavní strana
METAR-TAF:

METAR-TAF

Letiště :

Wellington, Nový Zéland

zeměpisná šířka: 41-20S, zeměpisná délka: 174-48E, výška: 12 m

Aktuální stav počasí

Zpráva byla vytvořena před 21 minutami, v 00:00 UTC
Severní vítr 12 kt
Teplota 21°C
Vlhkost vzduchu 83%
Tlak 1013 hPa
Viditelnost 10 km a více

METAR: NZWN 180000Z AUTO 01012KT 9999 BKN020/// OVC026/// 21/18 Q1013 TEMPO 8000 RA

Čas: 13:21 (00:21 UTC)

Předpověď počasí

Zpráva byla vytvořena před 1 hodinou a 18 minutami, v 23:03 UTC
Předpověď platná od 18 v 00 UTC do 19 v 00 UTC
Severní vítr 15 kt
Viditelnost 10 km a více
Oblačno až skoro zataženo ve výšce 2000 ft
slabý déšť
Dočasný
od 18 v 00 UTC do 18 v 06 UTC
Viditelnost: 8000 m
déšť
Dočasný
od 18 v 12 UTC do 18 v 20 UTC
Oblačno až skoro zataženo ve výšce 1400 ft

TAF: NZWN 172303Z 1800/1900 36015KT 9999 -RA BKN020 TEMPO 1800/1806 8000 RA TEMPO 1812/1820 BKN014

Stav a předpovědi počasí z více než 4 000 letišť (zprávy METAR a TAF).

Červené a žluté tečky na mapě představují dostupné meteorologické stanice.

Když kurzor umístíte na tečku, zobrazí se název stanice.

Pak kliknutím zobrazíte stav a předpověď počasí.

Chcete-li změnit mapu, kliknutím na zelené tlačítko se znaménkem +mapu přiblížíte, kliknutím na zelené tlačítko se znaménkem – mapu oddálíte a kliknutím na zelené šipky přejdete na sousední mapy.


METAR-TAF: